createdAt,value
2023-03-29T00:02:04.470Z,99108.47
2023-03-29T00:05:08.914Z,99116.37
2023-03-29T00:08:14.609Z,99114.59
2023-03-29T00:11:18.132Z,99116.34
2023-03-29T00:14:20.930Z,99127.62
2023-03-29T00:17:24.032Z,99120.62
2023-03-29T00:20:27.123Z,99117.87
2023-03-29T00:23:30.158Z,99118.78
2023-03-29T00:26:32.753Z,99126.75
2023-03-29T00:29:35.934Z,99126.75
2023-03-29T00:32:38.685Z,99123.28
2023-03-29T00:35:42.538Z,99132.00
2023-03-29T00:38:45.369Z,99113.25
2023-03-29T00:41:49.839Z,99121.28
2023-03-29T00:45:17.605Z,99124.81
2023-03-29T00:48:22.719Z,99125.72
2023-03-29T00:51:27.482Z,99114.28
2023-03-29T00:54:30.479Z,99121.38
2023-03-29T00:57:34.323Z,99125.81
2023-03-29T01:00:45.049Z,99116.16
2023-03-29T01:03:57.489Z,99117.87
2023-03-29T01:07:04.807Z,99113.44
2023-03-29T01:10:12.131Z,99114.34
2023-03-29T01:13:21.875Z,99115.25
2023-03-29T01:16:26.818Z,99116.09
2023-03-29T01:19:35.271Z,99105.53
2023-03-29T01:22:51.682Z,99109.13
2023-03-29T01:26:11.254Z,99110.84
2023-03-29T01:29:24.202Z,99110.84
2023-03-29T01:32:35.451Z,99102.88
2023-03-29T01:35:47.082Z,99115.19
2023-03-29T01:38:57.303Z,99105.47
2023-03-29T01:42:03.273Z,99101.87
2023-03-29T01:45:25.493Z,99104.44
2023-03-29T01:48:50.881Z,99098.19
2023-03-29T01:51:58.598Z,99100.00
2023-03-29T01:55:09.477Z,99083.94
2023-03-29T01:58:13.883Z,99108.63
2023-03-29T02:01:20.313Z,99098.84
2023-03-29T02:04:27.896Z,99082.88
2023-03-29T02:07:32.328Z,99102.34
2023-03-29T02:10:36.787Z,99111.16
2023-03-29T02:13:39.730Z,99109.31
2023-03-29T02:16:42.505Z,99106.63
2023-03-29T02:19:50.256Z,99115.38
2023-03-29T02:23:02.472Z,99110.13
2023-03-29T02:26:06.833Z,99109.22
2023-03-29T02:29:09.877Z,99109.22
2023-03-29T02:32:20.652Z,99108.28
2023-03-29T02:35:34.220Z,99102.09
2023-03-29T02:38:39.089Z,99100.28
2023-03-29T02:41:43.794Z,99102.84
2023-03-29T02:44:50.085Z,99113.34
2023-03-29T02:47:56.016Z,99117.59
2023-03-29T02:51:01.808Z,99115.69
2023-03-29T02:54:31.796Z,99128.78
2023-03-29T02:57:37.142Z,99112.03
2023-03-29T03:00:44.757Z,99113.94
2023-03-29T03:03:48.264Z,99127.16
2023-03-29T03:06:51.048Z,99128.84
2023-03-29T03:09:53.896Z,99125.31
2023-03-29T03:12:56.731Z,99127.94
2023-03-29T03:16:01.347Z,99129.69
2023-03-29T03:19:04.484Z,99132.41
2023-03-29T03:22:07.920Z,99136.78
2023-03-29T03:25:11.252Z,99128.84
2023-03-29T03:28:18.710Z,99134.16
2023-03-29T03:31:21.537Z,99130.59
2023-03-29T03:34:28.228Z,99132.41
2023-03-29T03:37:30.735Z,99137.72
2023-03-29T03:40:34.341Z,99136.81
2023-03-29T03:43:37.056Z,99138.59
2023-03-29T03:46:40.426Z,99135.88
2023-03-29T03:49:43.505Z,99126.22
2023-03-29T03:52:46.834Z,99126.22
2023-03-29T03:55:55.947Z,99131.41
2023-03-29T03:58:59.475Z,99129.66
2023-03-29T04:02:02.729Z,99128.72
2023-03-29T04:05:06.374Z,99131.34
2023-03-29T04:08:09.490Z,99130.47
2023-03-29T04:11:13.944Z,99134.00
2023-03-29T04:14:16.748Z,99136.56
2023-03-29T04:17:21.052Z,99140.84
2023-03-29T04:20:24.402Z,99143.19
2023-03-29T04:23:27.399Z,99143.19
2023-03-29T04:26:30.415Z,99143.03
2023-03-29T04:29:33.399Z,99144.59
2023-03-29T04:32:37.456Z,99148.00
2023-03-29T04:35:40.576Z,99158.38
2023-03-29T04:38:47.709Z,99148.59
2023-03-29T04:41:51.252Z,99148.56
2023-03-29T04:44:54.773Z,99153.88
2023-03-29T04:48:02.054Z,99148.50
2023-03-29T04:51:05.849Z,99150.28
2023-03-29T04:54:10.333Z,99148.56
2023-03-29T04:57:14.469Z,99117.66
2023-03-29T05:00:20.597Z,99147.72
2023-03-29T05:03:25.602Z,99147.72
2023-03-29T05:06:29.276Z,99145.34
2023-03-29T05:09:34.316Z,99142.66
2023-03-29T05:12:39.167Z,99137.19
2023-03-29T05:15:42.077Z,99145.66
2023-03-29T05:18:45.155Z,99155.97
2023-03-29T05:21:51.324Z,99147.09
2023-03-29T05:24:55.831Z,99146.94
2023-03-29T05:27:58.372Z,99146.00
2023-03-29T05:31:04.422Z,99145.19
2023-03-29T05:34:07.696Z,99126.56
2023-03-29T05:37:11.302Z,99149.69
2023-03-29T05:40:15.416Z,99147.22
2023-03-29T05:43:20.975Z,99155.25
2023-03-29T05:46:23.976Z,99152.72
2023-03-29T05:49:27.125Z,99161.59
2023-03-29T05:52:30.263Z,99165.16
2023-03-29T05:55:33.103Z,99172.91
2023-03-29T05:58:36.397Z,99169.75
2023-03-29T06:01:40.066Z,99184.41
2023-03-29T06:04:43.348Z,99185.13
2023-03-29T06:07:48.872Z,99180.56
2023-03-29T06:11:04.344Z,99179.63
2023-03-29T06:14:08.675Z,99183.31
2023-03-29T06:17:14.669Z,99190.53
2023-03-29T06:20:18.529Z,99183.59
2023-03-29T06:23:23.089Z,99183.78
2023-03-29T06:26:27.825Z,99182.12
2023-03-29T06:29:31.082Z,99184.06
2023-03-29T06:32:34.642Z,99185.09
2023-03-29T06:35:41.529Z,99192.31
2023-03-29T06:38:46.018Z,99181.56
2023-03-29T06:41:50.569Z,99197.59
2023-03-29T06:44:54.827Z,99203.91
2023-03-29T06:47:59.371Z,99200.47
2023-03-29T06:51:02.290Z,99202.19
2023-03-29T06:54:05.755Z,99215.56
2023-03-29T06:57:10.505Z,99193.50
2023-03-29T07:00:19.116Z,99218.41
2023-03-29T07:03:25.048Z,99217.59
2023-03-29T07:06:29.367Z,99220.25
2023-03-29T07:09:33.482Z,99218.50
2023-03-29T07:12:38.728Z,99219.47
2023-03-29T07:15:42.081Z,99221.25
2023-03-29T07:18:45.725Z,99231.03
2023-03-29T07:21:51.681Z,99243.44
2023-03-29T07:24:54.688Z,99234.56
2023-03-29T07:27:57.593Z,99231.09
2023-03-29T07:31:11.081Z,99233.78
2023-03-29T07:34:17.779Z,99229.34
2023-03-29T07:37:20.842Z,99230.28
2023-03-29T07:40:24.487Z,99224.97
2023-03-29T07:43:30.352Z,99224.13
2023-03-29T07:46:33.289Z,99237.41
2023-03-29T07:49:36.504Z,99229.44
2023-03-29T07:52:39.678Z,99239.16
2023-03-29T07:55:47.677Z,99239.16
2023-03-29T07:58:51.763Z,99245.38
2023-03-29T08:01:55.436Z,99248.00
2023-03-29T08:04:58.960Z,99243.56
2023-03-29T08:08:03.330Z,99252.38
2023-03-29T08:11:10.122Z,99248.75
2023-03-29T08:14:13.180Z,99248.75
2023-03-29T08:17:18.871Z,99244.31
2023-03-29T08:20:22.672Z,99247.81
2023-03-29T08:23:32.328Z,99244.06
2023-03-29T08:26:35.623Z,99245.69
2023-03-29T08:29:38.668Z,99241.22
2023-03-29T08:32:41.876Z,99242.88
2023-03-29T08:35:44.917Z,99243.56
2023-03-29T08:38:48.613Z,99237.69
2023-03-29T08:42:28.841Z,99242.66
2023-03-29T08:45:35.494Z,99238.53
2023-03-29T08:48:42.350Z,99245.34
2023-03-29T08:51:49.792Z,99238.91
2023-03-29T08:54:54.692Z,99239.37
2023-03-29T08:58:02.557Z,99238.44
2023-03-29T09:01:08.730Z,99231.94
2023-03-29T09:04:38.840Z,99233.09
2023-03-29T09:07:42.830Z,99220.06
2023-03-29T09:11:23.756Z,99219.12
2023-03-29T09:14:51.651Z,99215.63
2023-03-29T09:18:25.569Z,99216.50
2023-03-29T09:22:10.242Z,99215.63
2023-03-29T09:25:21.406Z,99215.28
2023-03-29T09:28:41.445Z,99204.94
2023-03-29T09:31:48.315Z,99210.56
2023-03-29T09:35:03.372Z,99197.41
2023-03-29T09:38:10.072Z,99204.66
2023-03-29T09:41:25.708Z,99221.66
2023-03-29T09:44:57.356Z,99212.09
2023-03-29T09:48:18.380Z,99214.41
2023-03-29T09:51:24.158Z,99213.94
2023-03-29T09:54:31.226Z,99197.69
2023-03-29T09:57:38.216Z,99193.75
2023-03-29T10:00:42.684Z,99194.09
2023-03-29T10:03:51.567Z,99175.50
2023-03-29T10:06:54.743Z,99180.44
2023-03-29T10:09:57.997Z,99184.53
2023-03-29T10:13:11.085Z,99174.94
2023-03-29T10:16:25.987Z,99164.75
2023-03-29T10:19:34.821Z,99174.19
2023-03-29T10:22:40.455Z,99170.34
2023-03-29T10:25:43.276Z,99162.91
2023-03-29T10:28:46.234Z,99164.59
2023-03-29T10:31:49.285Z,99163.22
2023-03-29T10:34:52.378Z,99156.00
2023-03-29T10:37:58.285Z,99155.22
2023-03-29T10:41:12.112Z,99148.06
2023-03-29T10:44:33.225Z,99149.84
2023-03-29T10:47:36.715Z,99139.34
2023-03-29T10:50:39.377Z,99144.91
2023-03-29T10:53:42.414Z,99139.53
2023-03-29T10:56:55.665Z,99133.91
2023-03-29T11:00:07.457Z,99126.31
2023-03-29T11:03:15.626Z,99129.53
2023-03-29T11:06:29.802Z,99135.06
2023-03-29T11:09:57.163Z,99130.81
2023-03-29T11:13:09.003Z,99114.34
2023-03-29T11:16:29.334Z,99112.56
2023-03-29T11:19:55.478Z,99107.94
2023-03-29T11:23:20.029Z,99110.34
2023-03-29T11:26:26.561Z,99114.66
2023-03-29T11:29:38.381Z,99115.78
2023-03-29T11:33:05.074Z,99093.97
2023-03-29T11:36:33.431Z,99094.75
2023-03-29T11:40:05.656Z,99102.09
2023-03-29T11:43:28.140Z,99105.03
2023-03-29T11:46:37.965Z,99103.06
2023-03-29T11:49:44.556Z,99095.44
2023-03-29T11:52:57.581Z,99090.22
2023-03-29T11:56:11.006Z,99087.97
2023-03-29T11:59:18.774Z,99080.28
2023-03-29T12:02:40.167Z,99070.47
2023-03-29T12:05:52.613Z,99073.09
2023-03-29T12:09:16.171Z,99068.75
2023-03-29T12:12:25.157Z,99068.22
2023-03-29T12:15:31.734Z,99069.28
2023-03-29T12:18:41.560Z,99057.22
2023-03-29T12:21:46.070Z,99052.78
2023-03-29T12:24:51.137Z,99050.00
2023-03-29T12:28:04.405Z,99039.84
2023-03-29T12:31:07.206Z,99035.13
2023-03-29T12:34:31.015Z,99031.81
2023-03-29T12:38:01.730Z,99033.50
2023-03-29T12:41:20.045Z,99019.84
2023-03-29T12:44:26.127Z,99025.44
2023-03-29T12:47:33.780Z,99025.06
2023-03-29T12:50:44.249Z,99012.91
2023-03-29T12:53:51.783Z,99014.12
2023-03-29T12:57:00.558Z,99022.62
2023-03-29T13:00:42.730Z,99023.78
2023-03-29T13:03:45.839Z,99020.09
2023-03-29T13:06:48.220Z,99015.31
2023-03-29T13:10:12.577Z,99018.22
2023-03-29T13:13:18.294Z,99010.97
2023-03-29T13:16:29.885Z,99023.31
2023-03-29T13:19:44.622Z,99020.91
2023-03-29T13:22:58.983Z,99011.59
2023-03-29T13:26:21.955Z,99012.06
2023-03-29T13:29:37.128Z,99007.53
2023-03-29T13:33:12.061Z,99008.31
2023-03-29T13:36:24.566Z,99004.06
2023-03-29T13:39:32.384Z,98993.50
2023-03-29T13:42:35.502Z,98991.62
2023-03-29T13:45:39.143Z,98992.75
2023-03-29T13:48:42.668Z,98998.66
2023-03-29T13:52:01.249Z,98996.44
2023-03-29T13:55:10.743Z,98994.31
2023-03-29T13:58:17.416Z,98981.34
2023-03-29T14:01:36.752Z,98980.94
2023-03-29T14:04:45.001Z,98976.84
2023-03-29T14:07:51.575Z,98977.16
2023-03-29T14:10:54.741Z,98989.56
2023-03-29T14:14:02.881Z,98975.16
2023-03-29T14:17:05.940Z,98981.81
2023-03-29T14:20:11.737Z,98975.94
2023-03-29T14:23:20.204Z,98971.94
2023-03-29T14:26:24.780Z,98975.31
2023-03-29T14:29:37.819Z,98967.62
2023-03-29T14:32:41.627Z,98963.50
2023-03-29T14:35:44.847Z,98965.84
2023-03-29T14:38:50.835Z,98960.81
2023-03-29T14:41:55.413Z,98946.12
2023-03-29T14:45:04.097Z,98953.91
2023-03-29T14:48:07.303Z,98958.44
2023-03-29T14:51:10.704Z,98951.16
2023-03-29T14:54:22.155Z,98950.84
2023-03-29T14:57:28.415Z,98946.25
2023-03-29T15:00:39.706Z,98943.38
2023-03-29T15:03:54.975Z,98950.25
2023-03-29T15:06:58.532Z,98946.66
2023-03-29T15:10:03.114Z,98947.09
2023-03-29T15:13:07.285Z,98948.56
2023-03-29T15:16:14.175Z,98947.84
2023-03-29T15:19:20.000Z,98940.19
2023-03-29T15:22:22.755Z,98936.41
2023-03-29T15:25:37.777Z,98935.38
2023-03-29T15:28:55.754Z,98934.22
2023-03-29T15:31:59.371Z,98933.59
2023-03-29T15:35:05.179Z,98945.44
2023-03-29T15:38:12.155Z,98946.53
2023-03-29T15:41:15.404Z,98943.41
2023-03-29T15:44:23.431Z,98935.25
2023-03-29T15:47:26.502Z,98937.66
2023-03-29T15:50:29.410Z,98934.44
2023-03-29T15:53:31.949Z,98930.84
2023-03-29T15:56:41.344Z,98935.78
2023-03-29T15:59:45.460Z,98927.66
2023-03-29T16:02:48.430Z,98927.37
2023-03-29T16:05:54.170Z,98924.66
2023-03-29T16:08:57.486Z,98926.00
2023-03-29T16:12:01.380Z,98922.84
2023-03-29T16:15:17.941Z,98921.03
2023-03-29T16:18:21.224Z,98919.37
2023-03-29T16:21:24.430Z,98921.53
2023-03-29T16:24:32.114Z,98923.50
2023-03-29T16:27:34.749Z,98915.72
2023-03-29T16:30:38.448Z,98919.31
2023-03-29T16:33:41.761Z,98915.84
2023-03-29T16:36:45.311Z,98907.16
2023-03-29T16:39:48.112Z,98907.31
2023-03-29T16:42:51.437Z,98906.31
2023-03-29T16:45:54.307Z,98899.97
2023-03-29T16:48:58.121Z,98910.69
2023-03-29T16:52:01.529Z,98910.84
2023-03-29T16:55:05.906Z,98911.84
2023-03-29T16:58:09.068Z,98917.28
2023-03-29T17:01:14.509Z,98908.69
2023-03-29T17:04:17.160Z,98916.66
2023-03-29T17:07:20.070Z,98916.81
2023-03-29T17:10:23.449Z,98916.16
2023-03-29T17:13:26.899Z,98920.50
2023-03-29T17:16:29.707Z,98917.06
2023-03-29T17:19:33.057Z,98906.31
2023-03-29T17:22:36.180Z,98909.03
2023-03-29T17:25:39.081Z,98910.97
2023-03-29T17:28:43.562Z,98914.66
2023-03-29T17:31:51.519Z,98912.84
2023-03-29T17:34:54.051Z,98921.09
2023-03-29T17:37:57.831Z,98923.75
2023-03-29T17:41:02.824Z,98922.91
2023-03-29T17:44:07.169Z,98931.00
2023-03-29T17:47:09.937Z,98927.47
2023-03-29T17:50:13.443Z,98936.56
2023-03-29T17:53:16.172Z,98928.50
2023-03-29T17:56:22.945Z,98937.53
2023-03-29T17:59:26.069Z,98937.53
2023-03-29T18:02:29.067Z,98934.97
2023-03-29T18:05:32.439Z,98935.97
2023-03-29T18:08:35.808Z,98936.13
2023-03-29T18:11:40.223Z,98928.13
2023-03-29T18:14:42.923Z,98931.69
2023-03-29T18:17:46.083Z,98929.06
2023-03-29T18:20:49.030Z,98944.34
2023-03-29T18:23:56.786Z,98948.84
2023-03-29T18:27:01.213Z,98946.16
2023-03-29T18:30:10.824Z,98951.53
2023-03-29T18:33:13.766Z,98926.78
2023-03-29T18:36:16.904Z,98934.75
2023-03-29T18:39:20.194Z,98952.56
2023-03-29T18:42:23.435Z,98954.44
2023-03-29T18:45:26.384Z,98946.53
2023-03-29T18:48:38.765Z,98951.84
2023-03-29T18:51:42.230Z,98958.88
2023-03-29T18:54:46.861Z,98952.75
2023-03-29T18:57:52.685Z,98941.31
2023-03-29T19:01:04.288Z,98944.91
2023-03-29T19:04:07.689Z,98954.84
2023-03-29T19:07:12.311Z,98952.19
2023-03-29T19:10:15.319Z,98947.81
2023-03-29T19:13:18.650Z,98943.47
2023-03-29T19:16:21.931Z,98949.81
2023-03-29T19:19:26.370Z,98949.81
2023-03-29T19:22:29.361Z,98945.34
2023-03-29T19:25:32.892Z,98943.66
2023-03-29T19:28:35.957Z,98943.59
2023-03-29T19:31:39.376Z,98953.53
2023-03-29T19:34:42.376Z,98958.00
2023-03-29T19:37:45.524Z,98956.19
2023-03-29T19:40:49.706Z,98963.38
2023-03-29T19:43:53.060Z,98956.28
2023-03-29T19:46:55.950Z,98950.06
2023-03-29T19:50:00.028Z,98953.66
2023-03-29T19:53:02.909Z,98951.84
2023-03-29T19:56:07.860Z,98951.91
2023-03-29T19:59:14.776Z,98949.25
2023-03-29T20:02:18.265Z,98957.31
2023-03-29T20:05:21.489Z,98953.78
2023-03-29T20:08:24.930Z,98955.63
2023-03-29T20:11:28.981Z,98958.38
2023-03-29T20:14:32.207Z,98962.00
2023-03-29T20:17:35.741Z,98955.84
2023-03-29T20:20:38.860Z,98952.34
2023-03-29T20:23:42.260Z,98950.66
2023-03-29T20:26:44.971Z,98944.44
2023-03-29T20:29:48.978Z,98944.53
2023-03-29T20:32:51.759Z,98952.66
2023-03-29T20:35:55.018Z,98937.66
2023-03-29T20:38:59.325Z,98949.25
2023-03-29T20:42:02.596Z,98943.84
2023-03-29T20:45:06.076Z,98941.19
2023-03-29T20:48:09.492Z,98940.28
2023-03-29T20:51:14.206Z,98932.19
2023-03-29T20:54:18.353Z,98936.56
2023-03-29T20:57:21.310Z,98941.78
2023-03-29T21:00:28.996Z,98936.44
2023-03-29T21:03:32.122Z,98940.06
2023-03-29T21:06:36.122Z,98931.16
2023-03-29T21:09:39.260Z,98931.12
2023-03-29T21:12:42.426Z,98934.63
2023-03-29T21:15:46.449Z,98936.44
2023-03-29T21:18:49.226Z,98933.75
2023-03-29T21:21:52.265Z,98945.31
2023-03-29T21:24:55.832Z,98935.56
2023-03-29T21:27:58.564Z,98931.16
2023-03-29T21:31:06.150Z,98926.81
2023-03-29T21:34:09.223Z,98910.91
2023-03-29T21:37:14.015Z,98918.81
2023-03-29T21:40:18.084Z,98918.75
2023-03-29T21:43:21.463Z,98918.72
2023-03-29T21:46:24.838Z,98918.75
2023-03-29T21:49:27.798Z,98922.34
2023-03-29T21:52:30.857Z,98925.91
2023-03-29T21:55:38.027Z,98925.09
2023-03-29T21:58:40.992Z,98916.28
2023-03-29T22:01:43.969Z,98920.66
2023-03-29T22:04:46.838Z,98912.78
2023-03-29T22:07:50.431Z,98914.59
2023-03-29T22:10:55.625Z,98910.97
2023-03-29T22:13:58.190Z,98906.50
2023-03-29T22:17:01.465Z,98904.75
2023-03-29T22:20:11.722Z,98910.97
2023-03-29T22:23:15.421Z,98912.81
2023-03-29T22:26:20.410Z,98913.72
2023-03-29T22:29:23.392Z,98916.44
2023-03-29T22:32:27.095Z,98915.56
2023-03-29T22:35:29.951Z,98912.88
2023-03-29T22:38:32.708Z,98908.41
2023-03-29T22:41:36.116Z,98903.06
2023-03-29T22:44:39.080Z,98903.94
2023-03-29T22:47:42.746Z,98914.72
2023-03-29T22:50:48.692Z,98906.75
2023-03-29T22:53:51.547Z,98914.75
2023-03-29T22:56:54.622Z,98921.03
2023-03-29T22:59:57.492Z,98918.37
2023-03-29T23:03:00.210Z,98914.81
2023-03-29T23:06:03.463Z,98913.00
2023-03-29T23:09:06.344Z,98917.47
2023-03-29T23:12:09.765Z,98924.56
2023-03-29T23:15:12.920Z,98913.00
2023-03-29T23:18:18.511Z,98913.03
2023-03-29T23:21:21.119Z,98904.94
2023-03-29T23:24:24.137Z,98910.31
2023-03-29T23:27:26.703Z,98908.53
2023-03-29T23:30:30.049Z,98913.88
2023-03-29T23:33:35.471Z,98907.66
2023-03-29T23:36:38.756Z,98923.69
2023-03-29T23:39:41.712Z,98921.84
2023-03-29T23:42:46.641Z,98922.72
2023-03-29T23:45:55.914Z,98919.19
2023-03-29T23:48:59.006Z,98920.03
2023-03-29T23:52:02.673Z,98920.03
2023-03-29T23:55:07.143Z,98920.94
2023-03-29T23:58:09.827Z,98921.91
